createdAt,value
2022-09-02T00:01:57.646Z,18.89
2022-09-02T00:04:28.333Z,18.93
2022-09-02T00:06:58.164Z,18.89
2022-09-02T00:09:28.573Z,18.97
2022-09-02T00:11:58.563Z,18.88
2022-09-02T00:14:31.537Z,18.88
2022-09-02T00:17:01.741Z,18.93
2022-09-02T00:19:32.426Z,18.87
2022-09-02T00:22:03.124Z,18.86
2022-09-02T00:24:33.197Z,18.74
2022-09-02T00:27:03.027Z,18.68
2022-09-02T00:29:33.536Z,18.71
2022-09-02T00:32:03.456Z,18.68
2022-09-02T00:34:33.662Z,18.51
2022-09-02T00:37:03.431Z,18.51
2022-09-02T00:39:34.184Z,18.75
2022-09-02T00:42:06.947Z,18.75
2022-09-02T00:44:37.045Z,18.55
2022-09-02T00:47:06.800Z,18.45
2022-09-02T00:49:39.329Z,18.46
2022-09-02T00:52:19.587Z,18.57
2022-09-02T00:54:55.168Z,18.39
2022-09-02T00:57:27.691Z,18.44
2022-09-02T01:00:19.647Z,18.42
2022-09-02T01:03:01.370Z,18.42
2022-09-02T01:05:34.168Z,18.45
2022-09-02T01:08:09.561Z,18.33
2022-09-02T01:10:40.949Z,18.28
2022-09-02T01:13:13.828Z,18.39
2022-09-02T01:15:47.982Z,18.17
2022-09-02T01:18:24.167Z,18.17
2022-09-02T01:20:53.933Z,18.06
2022-09-02T01:23:23.831Z,18.19
2022-09-02T01:25:55.116Z,18.18
2022-09-02T01:28:25.686Z,18.05
2022-09-02T01:30:56.400Z,18.07
2022-09-02T01:33:26.327Z,18.04
2022-09-02T01:35:56.095Z,17.99
2022-09-02T01:38:26.514Z,18.04
2022-09-02T01:40:56.350Z,18.05
2022-09-02T01:43:29.780Z,17.93
2022-09-02T01:46:00.610Z,18.05
2022-09-02T01:48:31.709Z,17.96
2022-09-02T01:51:04.869Z,17.94
2022-09-02T01:53:35.195Z,17.94
2022-09-02T01:56:06.743Z,17.94
2022-09-02T01:58:36.754Z,17.89
2022-09-02T02:01:07.846Z,17.85
2022-09-02T02:03:39.788Z,17.72
2022-09-02T02:06:16.517Z,17.68
2022-09-02T02:08:47.326Z,17.69
2022-09-02T02:11:21.925Z,17.74
2022-09-02T02:13:53.319Z,17.64
2022-09-02T02:16:23.565Z,17.65
2022-09-02T02:18:53.131Z,17.71
2022-09-02T02:21:22.911Z,17.62
2022-09-02T02:23:53.574Z,17.68
2022-09-02T02:26:23.422Z,17.65
2022-09-02T02:28:53.191Z,17.57
2022-09-02T02:31:24.636Z,17.53
2022-09-02T02:33:54.867Z,17.65
2022-09-02T02:36:24.705Z,17.61
2022-09-02T02:38:54.528Z,17.59
2022-09-02T02:41:24.294Z,17.51
2022-09-02T02:43:54.359Z,17.37
2022-09-02T02:46:24.652Z,17.30
2022-09-02T02:48:54.353Z,17.39
2022-09-02T02:51:24.120Z,17.28
2022-09-02T02:53:58.218Z,17.37
2022-09-02T02:56:25.570Z,17.37
2022-09-02T02:58:55.722Z,17.36
2022-09-02T03:01:25.612Z,17.44
2022-09-02T03:03:55.870Z,17.44
2022-09-02T03:06:26.612Z,17.43
2022-09-02T03:08:57.553Z,17.30
2022-09-02T03:11:28.349Z,17.20
2022-09-02T03:13:59.310Z,17.20
2022-09-02T03:16:29.208Z,17.18
2022-09-02T03:18:59.066Z,17.10
2022-09-02T03:21:28.856Z,17.09
2022-09-02T03:24:00.309Z,17.07
2022-09-02T03:26:30.064Z,17.06
2022-09-02T03:29:00.763Z,17.18
2022-09-02T03:31:30.882Z,16.98
2022-09-02T03:34:00.924Z,16.89
2022-09-02T03:36:36.377Z,16.96
2022-09-02T03:39:09.856Z,17.09
2022-09-02T03:41:41.755Z,16.95
2022-09-02T03:44:12.152Z,16.88
2022-09-02T03:46:42.848Z,16.93
2022-09-02T03:49:13.122Z,16.98
2022-09-02T03:51:44.267Z,16.83
2022-09-02T03:54:14.169Z,16.86
2022-09-02T03:56:44.199Z,16.69
2022-09-02T03:59:15.874Z,16.92
2022-09-02T04:01:45.922Z,16.78
2022-09-02T04:04:19.733Z,16.96
2022-09-02T04:06:50.303Z,16.94
2022-09-02T04:09:20.057Z,17.02
2022-09-02T04:11:51.056Z,17.09
2022-09-02T04:14:20.976Z,16.99
2022-09-02T04:16:50.830Z,16.93
2022-09-02T04:19:20.649Z,16.98
2022-09-02T04:21:51.531Z,17.07
2022-09-02T04:24:21.559Z,17.10
2022-09-02T04:26:51.831Z,16.95
2022-09-02T04:29:21.761Z,17.14
2022-09-02T04:31:52.101Z,17.15
2022-09-02T04:34:21.956Z,17.05
2022-09-02T04:36:52.847Z,17.05
2022-09-02T04:39:23.029Z,17.05
2022-09-02T04:41:54.542Z,17.03
2022-09-02T04:44:26.544Z,17.01
2022-09-02T04:46:56.846Z,17.17
2022-09-02T04:49:27.219Z,17.28
2022-09-02T04:51:56.980Z,17.31
2022-09-02T04:54:27.786Z,17.23
2022-09-02T04:56:59.257Z,17.28
2022-09-02T04:59:30.011Z,17.30
2022-09-02T05:02:08.569Z,17.37
2022-09-02T05:04:39.076Z,17.59
2022-09-02T05:07:11.817Z,17.37
2022-09-02T05:09:44.364Z,17.41
2022-09-02T05:12:15.034Z,17.40
2022-09-02T05:14:49.482Z,17.71
2022-09-02T05:17:20.782Z,17.63
2022-09-02T05:19:50.893Z,17.53
2022-09-02T05:22:21.062Z,17.56
2022-09-02T05:24:50.920Z,17.70
2022-09-02T05:27:21.287Z,17.76
2022-09-02T05:29:59.482Z,17.95
2022-09-02T05:32:33.318Z,17.77
2022-09-02T05:35:02.118Z,17.92
2022-09-02T05:37:33.559Z,17.92
2022-09-02T05:40:05.903Z,18.08
2022-09-02T05:42:39.695Z,18.06
2022-09-02T05:45:10.218Z,18.39
2022-09-02T05:47:40.069Z,18.39
2022-09-02T05:50:14.332Z,18.46
2022-09-02T05:52:45.550Z,18.54
2022-09-02T05:55:15.627Z,18.50
2022-09-02T05:57:46.847Z,18.73
2022-09-02T06:00:18.178Z,18.58
2022-09-02T06:02:49.971Z,18.62
2022-09-02T06:05:21.381Z,18.76
2022-09-02T06:07:52.864Z,18.80
2022-09-02T06:10:23.020Z,19.14
2022-09-02T06:12:52.855Z,19.36
2022-09-02T06:15:25.827Z,19.36
2022-09-02T06:17:58.793Z,19.23
2022-09-02T06:20:30.216Z,19.15
2022-09-02T06:23:00.057Z,19.17
2022-09-02T06:25:29.982Z,19.26
2022-09-02T06:28:05.160Z,19.24
2022-09-02T06:30:32.922Z,19.17
2022-09-02T06:33:04.036Z,19.11
2022-09-02T06:35:43.043Z,19.12
2022-09-02T06:38:14.525Z,19.55
2022-09-02T06:40:50.643Z,19.45
2022-09-02T06:43:22.740Z,19.55
2022-09-02T06:45:57.100Z,19.44
2022-09-02T06:48:27.228Z,19.54
2022-09-02T06:50:58.356Z,19.69
2022-09-02T06:53:29.435Z,19.88
2022-09-02T06:55:59.274Z,19.81
2022-09-02T06:58:29.178Z,19.97
2022-09-02T07:00:59.183Z,20.07
2022-09-02T07:03:46.674Z,20.20
2022-09-02T07:06:16.992Z,19.87
2022-09-02T07:08:48.404Z,19.80
2022-09-02T07:11:24.157Z,19.80
2022-09-02T07:13:55.241Z,19.99
2022-09-02T07:16:27.209Z,19.80
2022-09-02T07:19:00.396Z,20.12
2022-09-02T07:21:31.275Z,20.11
2022-09-02T07:24:02.618Z,20.17
2022-09-02T07:26:32.460Z,20.34
2022-09-02T07:29:02.302Z,20.45
2022-09-02T07:31:32.077Z,20.55
2022-09-02T07:34:03.297Z,20.54
2022-09-02T07:36:34.891Z,20.57
2022-09-02T07:39:07.384Z,20.55
2022-09-02T07:41:39.152Z,21.07
2022-09-02T07:44:10.296Z,21.44
2022-09-02T07:46:40.194Z,21.56
2022-09-02T07:49:12.544Z,21.75
2022-09-02T07:51:46.232Z,21.89
2022-09-02T07:54:18.770Z,21.96
2022-09-02T07:56:49.756Z,22.14
2022-09-02T07:59:21.540Z,22.29
2022-09-02T08:01:53.804Z,22.29
2022-09-02T08:04:25.048Z,22.21
2022-09-02T08:06:56.328Z,22.42
2022-09-02T08:09:26.169Z,22.52
2022-09-02T08:11:55.934Z,22.74
2022-09-02T08:14:28.706Z,22.74
2022-09-02T08:16:59.161Z,22.87
2022-09-02T08:19:30.383Z,23.00
2022-09-02T08:22:06.295Z,23.00
2022-09-02T08:24:36.126Z,22.65
2022-09-02T08:27:06.434Z,22.64
2022-09-02T08:29:36.199Z,22.71
2022-09-02T08:32:07.848Z,23.15
2022-09-02T08:34:37.895Z,23.36
2022-09-02T08:37:08.130Z,23.40
2022-09-02T08:39:38.199Z,23.40
2022-09-02T08:42:15.306Z,23.43
2022-09-02T08:44:46.794Z,23.41
2022-09-02T08:47:22.882Z,23.52
2022-09-02T08:49:55.434Z,23.36
2022-09-02T08:52:33.841Z,23.53
2022-09-02T08:55:03.761Z,23.70
2022-09-02T08:57:33.859Z,23.81
2022-09-02T09:00:04.542Z,23.47
2022-09-02T09:02:47.577Z,23.62
2022-09-02T09:05:28.900Z,23.62
2022-09-02T09:08:16.974Z,23.69
2022-09-02T09:10:53.102Z,23.70
2022-09-02T09:13:45.620Z,23.84
2022-09-02T09:16:30.321Z,24.34
2022-09-02T09:19:25.296Z,24.29
2022-09-02T09:21:57.575Z,24.32
2022-09-02T09:24:32.934Z,24.88
2022-09-02T09:27:05.073Z,25.43
2022-09-02T09:29:36.322Z,25.22
2022-09-02T09:32:09.727Z,25.41
2022-09-02T09:34:59.690Z,26.00
2022-09-02T09:37:36.107Z,26.22
2022-09-02T09:40:24.324Z,26.44
2022-09-02T09:43:07.938Z,26.44
2022-09-02T09:45:46.535Z,27.29
2022-09-02T09:48:26.894Z,27.29
2022-09-02T09:50:59.713Z,27.13
2022-09-02T09:53:32.981Z,27.34
2022-09-02T09:56:17.485Z,27.37
2022-09-02T09:58:49.373Z,27.20
2022-09-02T10:01:28.008Z,27.18
2022-09-02T10:04:02.418Z,27.07
2022-09-02T10:06:35.239Z,27.05
2022-09-02T10:09:08.046Z,27.05
2022-09-02T10:11:38.751Z,27.25
2022-09-02T10:14:12.544Z,27.68
2022-09-02T10:16:51.246Z,27.76
2022-09-02T10:19:40.282Z,28.02
2022-09-02T10:22:58.406Z,28.21
2022-09-02T10:25:15.472Z,28.76
2022-09-02T10:27:54.042Z,28.58
2022-09-02T10:30:25.369Z,28.41
2022-09-02T10:33:01.394Z,28.42
2022-09-02T10:35:48.926Z,28.13
2022-09-02T10:38:24.641Z,28.69
2022-09-02T10:40:59.760Z,28.77
2022-09-02T10:43:44.423Z,28.77
2022-09-02T10:46:17.259Z,28.60
2022-09-02T10:48:59.533Z,28.92
2022-09-02T10:51:41.068Z,28.97
2022-09-02T10:54:24.774Z,28.71
2022-09-02T10:57:03.040Z,28.71
2022-09-02T10:59:38.555Z,28.91
2022-09-02T11:02:27.113Z,28.55
2022-09-02T11:05:18.028Z,28.40
2022-09-02T11:08:20.810Z,28.73
2022-09-02T11:10:59.658Z,28.98
2022-09-02T11:13:54.876Z,28.71
2022-09-02T11:16:27.765Z,28.71
2022-09-02T11:19:12.124Z,28.50
2022-09-02T11:21:47.574Z,28.63
2022-09-02T11:24:20.391Z,28.71
2022-09-02T11:27:32.270Z,28.48
2022-09-02T11:30:08.104Z,28.55
2022-09-02T11:32:46.149Z,28.68
2022-09-02T11:35:27.873Z,28.98
2022-09-02T11:38:06.695Z,28.54
2022-09-02T11:40:39.930Z,29.16
2022-09-02T11:43:34.022Z,29.50
2022-09-02T11:46:22.818Z,29.50
2022-09-02T11:49:06.906Z,29.63
2022-09-02T11:51:50.240Z,29.61
2022-09-02T11:54:21.841Z,28.99
2022-09-02T11:57:01.608Z,29.35
2022-09-02T11:59:50.641Z,29.93
2022-09-02T12:02:48.253Z,29.57
2022-09-02T12:05:33.565Z,29.80
2022-09-02T12:08:22.945Z,30.32
2022-09-02T12:11:01.014Z,30.40
2022-09-02T12:13:44.839Z,29.95
2022-09-02T12:16:19.798Z,29.75
2022-09-02T12:18:58.516Z,29.37
2022-09-02T12:21:31.394Z,29.23
2022-09-02T12:24:04.379Z,28.97
2022-09-02T12:26:42.949Z,28.47
2022-09-02T12:29:22.638Z,28.39
2022-09-02T12:31:55.022Z,28.39
2022-09-02T12:34:30.397Z,28.66
2022-09-02T12:37:04.100Z,28.62
2022-09-02T12:39:36.916Z,29.20
2022-09-02T12:42:28.874Z,29.24
2022-09-02T12:45:16.505Z,29.09
2022-09-02T12:47:54.969Z,28.45
2022-09-02T12:50:31.663Z,28.63
2022-09-02T12:53:21.131Z,28.62
2022-09-02T12:58:45.473Z,29.03
2022-09-02T13:01:30.919Z,29.15
2022-09-02T13:04:12.895Z,29.62
2022-09-02T13:07:06.264Z,29.83
2022-09-02T13:09:45.054Z,30.11
2022-09-02T13:12:27.395Z,30.15
2022-09-02T13:15:11.688Z,29.97
2022-09-02T13:18:05.219Z,29.84
2022-09-02T13:20:40.346Z,29.31
2022-09-02T13:23:31.213Z,29.72
2022-09-02T13:26:08.363Z,29.95
2022-09-02T13:28:52.766Z,29.95
2022-09-02T13:31:27.774Z,30.42
2022-09-02T13:34:05.452Z,30.65
2022-09-02T13:36:37.484Z,30.66
2022-09-02T13:39:21.394Z,30.57
2022-09-02T13:41:51.318Z,31.14
2022-09-02T13:44:30.066Z,31.34
2022-09-02T13:47:08.064Z,31.60
2022-09-02T13:49:40.610Z,31.40
2022-09-02T13:52:18.074Z,30.77
2022-09-02T13:54:52.091Z,30.50
2022-09-02T13:57:25.843Z,30.61
2022-09-02T13:59:57.669Z,30.66
2022-09-02T14:02:30.704Z,30.52
2022-09-02T14:05:18.396Z,30.64
2022-09-02T14:07:54.401Z,30.77
2022-09-02T14:10:28.240Z,31.19
2022-09-02T14:12:59.117Z,30.78
2022-09-02T14:15:32.013Z,31.37
2022-09-02T14:18:18.048Z,31.40
2022-09-02T14:21:06.777Z,31.14
2022-09-02T14:23:39.580Z,31.23
2022-09-02T14:26:11.463Z,31.72
2022-09-02T14:28:41.309Z,31.17
2022-09-02T14:31:18.586Z,30.67
2022-09-02T14:33:46.509Z,30.53
2022-09-02T14:36:22.091Z,30.67
2022-09-02T14:38:55.460Z,30.58
2022-09-02T14:41:27.372Z,30.88
2022-09-02T14:44:02.963Z,30.73
2022-09-02T14:46:39.174Z,30.96
2022-09-02T14:49:20.930Z,30.86
2022-09-02T14:51:59.402Z,31.08
2022-09-02T14:54:38.243Z,30.85
2022-09-02T14:57:27.856Z,30.74
2022-09-02T15:00:01.893Z,30.38
2022-09-02T15:02:36.322Z,30.36
2022-09-02T15:05:10.886Z,30.08
2022-09-02T15:07:40.772Z,30.71
2022-09-02T15:10:10.867Z,31.43
2022-09-02T15:12:46.304Z,31.58
2022-09-02T15:15:17.147Z,30.89
2022-09-02T15:17:46.926Z,30.95
2022-09-02T15:20:17.468Z,31.11
2022-09-02T15:22:47.223Z,31.11
2022-09-02T15:25:17.441Z,31.04
2022-09-02T15:27:47.282Z,31.20
2022-09-02T15:30:17.235Z,30.72
2022-09-02T15:32:46.720Z,30.84
2022-09-02T15:35:16.893Z,30.50
2022-09-02T15:37:48.243Z,30.64
2022-09-02T15:40:17.781Z,30.83
2022-09-02T15:42:47.551Z,30.83
2022-09-02T15:45:17.710Z,30.52
2022-09-02T15:47:47.200Z,30.52
2022-09-02T15:50:17.917Z,30.49
2022-09-02T15:52:49.393Z,30.46
2022-09-02T15:55:21.787Z,30.22
2022-09-02T15:57:51.017Z,30.22
2022-09-02T16:00:21.142Z,30.19
2022-09-02T16:02:51.375Z,30.15
2022-09-02T16:05:21.371Z,29.89
2022-09-02T16:07:52.086Z,30.34
2022-09-02T16:10:21.749Z,29.77
2022-09-02T16:12:51.521Z,30.13
2022-09-02T16:15:21.083Z,29.81
2022-09-02T16:17:52.412Z,30.22
2022-09-02T16:20:23.472Z,30.22
2022-09-02T16:22:53.887Z,30.54
2022-09-02T16:25:24.313Z,30.55
2022-09-02T16:27:55.552Z,30.04
2022-09-02T16:30:25.687Z,30.21
2022-09-02T16:32:56.588Z,29.93
2022-09-02T16:35:26.204Z,29.96
2022-09-02T16:37:57.402Z,30.07
2022-09-02T16:40:27.165Z,29.88
2022-09-02T16:42:56.945Z,29.58
2022-09-02T16:45:26.699Z,29.31
2022-09-02T16:47:56.497Z,29.72
2022-09-02T16:50:26.248Z,29.44
2022-09-02T16:52:56.025Z,29.44
2022-09-02T16:55:25.791Z,29.88
2022-09-02T16:57:55.634Z,29.49
2022-09-02T17:00:25.862Z,29.67
2022-09-02T17:02:55.756Z,29.55
2022-09-02T17:05:25.588Z,29.71
2022-09-02T17:07:56.997Z,29.48
2022-09-02T17:10:26.761Z,29.34
2022-09-02T17:12:57.235Z,29.27
2022-09-02T17:15:27.090Z,28.91
2022-09-02T17:17:57.613Z,28.71
2022-09-02T17:20:27.855Z,28.82
2022-09-02T17:22:57.614Z,28.10
2022-09-02T17:25:27.584Z,28.50
2022-09-02T17:27:57.312Z,28.26
2022-09-02T17:30:27.096Z,28.15
2022-09-02T17:32:58.305Z,27.86
2022-09-02T17:35:28.059Z,28.26
2022-09-02T17:37:57.892Z,28.03
2022-09-02T17:40:45.210Z,28.25
2022-09-02T17:43:15.236Z,28.01
2022-09-02T17:45:46.863Z,27.43
2022-09-02T17:48:36.929Z,27.43
2022-09-02T17:50:48.350Z,27.23
2022-09-02T17:53:18.372Z,26.64
2022-09-02T17:55:50.279Z,26.42
2022-09-02T17:58:22.207Z,26.59
2022-09-02T18:00:55.074Z,26.43
2022-09-02T18:03:34.591Z,26.35
2022-09-02T18:06:07.444Z,25.81
2022-09-02T18:08:46.198Z,26.15
2022-09-02T18:11:16.037Z,25.94
2022-09-02T18:14:13.703Z,25.67
2022-09-02T18:17:06.967Z,25.64
2022-09-02T18:19:48.637Z,25.53
2022-09-02T18:22:27.084Z,25.48
2022-09-02T18:24:59.885Z,25.36
2022-09-02T18:27:47.905Z,25.33
2022-09-02T18:30:26.066Z,25.26
2022-09-02T18:33:16.577Z,25.21
2022-09-02T18:36:08.756Z,24.96
2022-09-02T18:38:41.957Z,24.95
2022-09-02T18:41:31.213Z,24.99
2022-09-02T18:44:10.703Z,24.91
2022-09-02T18:46:52.902Z,24.70
2022-09-02T18:49:24.819Z,24.64
2022-09-02T18:51:57.781Z,24.53
2022-09-02T18:54:33.102Z,24.45
2022-09-02T18:57:06.152Z,24.45
2022-09-02T18:59:57.297Z,24.31
2022-09-02T19:02:36.094Z,24.32
2022-09-02T19:05:11.843Z,24.35
2022-09-02T19:08:02.594Z,24.22
2022-09-02T19:10:32.222Z,23.96
2022-09-02T19:13:02.437Z,23.96
2022-09-02T19:15:33.344Z,24.14
2022-09-02T19:18:05.072Z,24.05
2022-09-02T19:20:37.308Z,23.99
2022-09-02T19:23:08.411Z,24.00
2022-09-02T19:25:38.724Z,23.91
2022-09-02T19:28:10.513Z,23.87
2022-09-02T19:30:40.438Z,23.81
2022-09-02T19:33:13.742Z,23.68
2022-09-02T19:35:49.706Z,23.69
2022-09-02T19:38:19.563Z,23.69
2022-09-02T19:40:49.398Z,23.57
2022-09-02T19:43:20.132Z,23.65
2022-09-02T19:45:51.308Z,23.67
2022-09-02T19:48:21.434Z,23.54
2022-09-02T19:50:51.266Z,23.38
2022-09-02T19:53:28.695Z,23.48
2022-09-02T19:55:59.489Z,23.42
2022-09-02T19:58:29.173Z,23.26
2022-09-02T20:00:59.282Z,23.23
2022-09-02T20:03:29.814Z,23.21
2022-09-02T20:05:59.816Z,23.47
2022-09-02T20:08:30.803Z,23.27
2022-09-02T20:11:02.807Z,23.05
2022-09-02T20:13:41.057Z,23.05
2022-09-02T20:16:10.424Z,22.97
2022-09-02T20:18:44.396Z,23.03
2022-09-02T20:21:28.925Z,23.00
2022-09-02T20:24:13.415Z,23.19
2022-09-02T20:26:58.987Z,22.95
2022-09-02T20:29:40.326Z,22.97
2022-09-02T20:32:17.313Z,22.89
2022-09-02T20:34:50.152Z,22.79
2022-09-02T20:37:55.579Z,22.71
2022-09-02T20:40:41.764Z,22.72
2022-09-02T20:45:59.120Z,22.59
2022-09-02T20:48:34.600Z,22.69
2022-09-02T20:51:23.450Z,22.59
2022-09-02T20:54:04.851Z,22.45
2022-09-02T20:56:37.421Z,22.33
2022-09-02T20:59:12.969Z,22.33
2022-09-02T21:01:45.442Z,22.41
2022-09-02T21:04:28.896Z,22.16
2022-09-02T21:07:09.050Z,22.20
2022-09-02T21:09:41.601Z,21.99
2022-09-02T21:12:23.279Z,21.99
2022-09-02T21:15:27.485Z,22.11
2022-09-02T21:18:23.572Z,22.13
2022-09-02T21:21:21.595Z,22.08
2022-09-02T21:24:00.127Z,21.99
2022-09-02T21:26:38.813Z,21.85
2022-09-02T21:29:32.906Z,21.85
2022-09-02T21:32:11.586Z,21.85
2022-09-02T21:34:59.059Z,21.96
2022-09-02T21:37:31.913Z,21.91
2022-09-02T21:40:08.022Z,21.85
2022-09-02T21:42:59.604Z,21.89
2022-09-02T21:45:44.189Z,21.79
2022-09-02T21:48:29.291Z,21.73
2022-09-02T21:51:04.892Z,21.65
2022-09-02T21:53:44.993Z,21.61
2022-09-02T21:56:23.657Z,21.61
2022-09-02T21:59:06.634Z,21.54
2022-09-02T22:01:57.488Z,21.54
2022-09-02T22:04:42.191Z,21.33
2022-09-02T22:07:21.911Z,21.50
2022-09-02T22:09:55.356Z,21.53
2022-09-02T22:12:26.276Z,21.42
2022-09-02T22:15:01.959Z,21.40
2022-09-02T22:17:53.146Z,21.42
2022-09-02T22:20:31.270Z,21.36
2022-09-02T22:23:06.368Z,21.15
2022-09-02T22:25:38.096Z,21.15
2022-09-02T22:28:10.610Z,21.21
2022-09-02T22:30:43.412Z,21.10
2022-09-02T22:33:16.152Z,21.10
2022-09-02T22:36:04.161Z,20.84
2022-09-02T22:38:41.443Z,20.84
2022-09-02T22:41:18.363Z,21.04
2022-09-02T22:43:53.678Z,20.94
2022-09-02T22:46:55.782Z,20.85
2022-09-02T22:49:44.594Z,20.82
2022-09-02T22:52:49.125Z,20.69
2022-09-02T22:55:21.631Z,20.76
2022-09-02T22:58:09.089Z,20.70
2022-09-02T23:00:46.479Z,20.80
2022-09-02T23:03:21.980Z,20.63
2022-09-02T23:06:13.520Z,20.61
2022-09-02T23:08:45.869Z,20.67
2022-09-02T23:11:20.321Z,20.60
2022-09-02T23:13:58.641Z,20.37
2022-09-02T23:16:44.038Z,20.51
2022-09-02T23:19:16.879Z,20.35
2022-09-02T23:21:54.283Z,20.40
2022-09-02T23:24:45.225Z,20.40
2022-09-02T23:27:34.204Z,20.31
2022-09-02T23:30:07.127Z,20.33
2022-09-02T23:32:44.570Z,20.31
2022-09-02T23:35:21.868Z,20.13
2022-09-02T23:38:17.087Z,20.07
2022-09-02T23:40:51.645Z,20.13
2022-09-02T23:43:22.001Z,20.18
2022-09-02T23:45:54.651Z,20.19
2022-09-02T23:48:30.143Z,19.91
2022-09-02T23:51:04.580Z,19.91
2022-09-02T23:53:58.150Z,19.97
2022-09-02T23:57:03.645Z,19.97
